Time;durP1;ratioP1;P1;durP2;ratioP2;P2;SDS_P1;SDS_P2;PMS_P1;PMS_P2;Temp;Humidity;BMP_temperature;BMP_pressure;BME280_temperature;BME280_humidity;BME280_pressure;Samples;Min_cycle;Max_cycle;Signal;HPM_P1;HPM_P2
2021/10/25 00:00:31;;;;;;;2.90;2.28;;;;;;;;;;5063018;28;20029;-52
2021/10/25 00:02:58;;;;;;;3.08;2.60;;;;;;;;;;5064417;28;20561;-53
2021/10/25 00:05:25;;;;;;;3.47;2.65;;;;;;;;;;5062990;28;20074;-52
2021/10/25 00:07:53;;;;;;;6.82;3.53;;;;;;;;;;5063640;28;20399;-52
2021/10/25 00:10:20;;;;;;;4.30;3.15;;;;;;;;;;5078777;28;20143;-52
2021/10/25 00:12:46;;;;;;;6.22;3.25;;;;;;;;;;5084521;28;20024;-52
2021/10/25 00:15:13;;;;;;;7.38;4.40;;;;;;;;;;5076557;28;20032;-53
2021/10/25 00:17:39;;;;;;;7.10;5.05;;;;;;;;;;5074674;28;20103;-53
2021/10/25 00:20:07;;;;;;;7.03;4.05;;;;;;;;;;5067495;28;20115;-50
2021/10/25 00:22:33;;;;;;;6.05;3.80;;;;;;;;;;5067991;28;20105;-50
2021/10/25 00:24:59;;;;;;;6.15;3.72;;;;;;;;;;5065811;28;20028;-51
2021/10/25 00:27:25;;;;;;;5.63;3.72;;;;;;;;;;5063629;28;20066;-52
2021/10/25 00:29:51;;;;;;;5.47;3.03;;;;;;;;;;5068384;28;20028;-49
2021/10/25 00:32:17;;;;;;;4.60;2.97;;;;;;;;;;5076402;28;20111;-49
2021/10/25 00:34:43;;;;;;;5.45;3.35;;;;;;;;;;5089522;28;20032;-53
2021/10/25 00:37:10;;;;;;;4.82;3.10;;;;;;;;;;5089638;28;20506;-52
2021/10/25 00:39:36;;;;;;;4.05;2.80;;;;;;;;;;5089300;28;20445;-52
2021/10/25 00:42:03;;;;;;;5.07;3.20;;;;;;;;;;5076233;28;20037;-52
2021/10/25 00:44:29;;;;;;;4.05;2.85;;;;;;;;;;5070069;28;20021;-51
2021/10/25 00:46:56;;;;;;;5.32;2.95;;;;;;;;;;5068835;28;20021;-53
2021/10/25 00:49:22;;;;;;;4.35;2.97;;;;;;;;;;5068218;28;20013;-53
2021/10/25 00:51:49;;;;;;;4.63;3.17;;;;;;;;;;5068591;28;20090;-51
2021/10/25 00:54:15;;;;;;;3.42;2.50;;;;;;;;;;5068979;28;20082;-51
2021/10/25 00:56:43;;;;;;;3.47;2.42;;;;;;;;;;5068695;28;20525;-50
2021/10/25 00:59:09;;;;;;;4.55;2.88;;;;;;;;;;5069036;28;20062;-52
2021/10/25 01:01:35;;;;;;;5.13;3.00;;;;;;;;;;5068676;28;20100;-53
2021/10/25 01:04:02;;;;;;;5.45;3.10;;;;;;;;;;5068677;28;20035;-52
2021/10/25 01:06:29;;;;;;;3.50;2.55;;;;;;;;;;5069267;28;20078;-52
2021/10/25 01:08:56;;;;;;;4.20;2.90;;;;;;;;;;5077464;28;20028;-51
2021/10/25 01:11:23;;;;;;;4.03;2.90;;;;;;;;;;5068369;28;20024;-52
2021/10/25 01:13:49;;;;;;;4.75;2.80;;;;;;;;;;5068782;28;20032;-51
2021/10/25 01:16:15;;;;;;;3.75;2.58;;;;;;;;;;5068568;28;20033;-53
2021/10/25 01:18:41;;;;;;;4.78;2.80;;;;;;;;;;5074044;28;20028;-51
2021/10/25 01:21:07;;;;;;;4.47;3.00;;;;;;;;;;5088867;28;20028;-53
2021/10/25 01:23:33;;;;;;;4.55;2.78;;;;;;;;;;5088211;28;20479;-49
2021/10/25 01:26:00;;;;;;;5.00;3.03;;;;;;;;;;5069035;28;20028;-49
2021/10/25 01:28:26;;;;;;;3.15;2.60;;;;;;;;;;5069117;28;20647;-49
2021/10/25 01:30:52;;;;;;;4.53;2.80;;;;;;;;;;5068293;28;20028;-51
2021/10/25 01:33:18;;;;;;;4.88;2.40;;;;;;;;;;5068061;28;20545;-50
2021/10/25 01:35:44;;;;;;;2.70;2.03;;;;;;;;;;5068263;28;20090;-53
2021/10/25 01:38:10;;;;;;;4.35;2.83;;;;;;;;;;5068234;28;20044;-53
2021/10/25 01:40:36;;;;;;;14.55;7.38;;;;;;;;;;5067323;28;20519;-52
2021/10/25 01:43:03;;;;;;;42.13;21.80;;;;;;;;;;5067909;28;20115;-51
2021/10/25 01:45:29;;;;;;;44.65;21.52;;;;;;;;;;5068370;28;20491;-51
2021/10/25 01:47:56;;;;;;;43.47;21.42;;;;;;;;;;5068053;28;20058;-52
2021/10/25 01:50:23;;;;;;;36.58;18.17;;;;;;;;;;5067271;28;20024;-52
2021/10/25 01:52:49;;;;;;;24.95;13.90;;;;;;;;;;5067902;28;20025;-52
2021/10/25 01:55:16;;;;;;;17.27;9.57;;;;;;;;;;5067698;28;20109;-52
2021/10/25 01:57:42;;;;;;;15.10;8.23;;;;;;;;;;5067672;28;20036;-51
2021/10/25 02:00:08;;;;;;;12.35;6.78;;;;;;;;;;5067372;28;20025;-52
2021/10/25 02:02:34;;;;;;;8.35;5.13;;;;;;;;;;5067235;28;20101;-53
2021/10/25 02:05:03;;;;;;;7.35;4.60;;;;;;;;;;5068217;28;20021;-52
2021/10/25 02:07:30;;;;;;;5.55;3.58;;;;;;;;;;5067967;28;20111;-52
2021/10/25 02:09:56;;;;;;;6.00;3.63;;;;;;;;;;5068071;28;20036;-52
2021/10/25 02:12:22;;;;;;;4.45;3.35;;;;;;;;;;5067211;28;20029;-52
2021/10/25 02:14:48;;;;;;;3.83;2.58;;;;;;;;;;5066306;28;20487;-53
2021/10/25 02:17:15;;;;;;;3.53;2.67;;;;;;;;;;5066668;28;20024;-52
2021/10/25 02:19:41;;;;;;;3.22;2.30;;;;;;;;;;5066384;28;20050;-52
2021/10/25 02:22:08;;;;;;;4.45;2.75;;;;;;;;;;5067224;28;20033;-52
2021/10/25 02:24:35;;;;;;;2.95;2.08;;;;;;;;;;5066923;28;20032;-51
2021/10/25 02:27:05;;;;;;;2.95;2.40;;;;;;;;;;5067059;28;20020;-52
2021/10/25 02:29:35;;;;;;;4.13;2.25;;;;;;;;;;5066194;28;20518;-52
2021/10/25 02:32:04;;;;;;;3.15;2.20;;;;;;;;;;5067381;28;20060;-51
2021/10/25 02:34:31;;;;;;;4.05;2.05;;;;;;;;;;5087460;28;20025;-53
2021/10/25 02:36:58;;;;;;;3.45;2.30;;;;;;;;;;5087846;28;20027;-50
2021/10/25 02:39:24;;;;;;;2.45;1.88;;;;;;;;;;5071420;28;20475;-51
2021/10/25 02:41:51;;;;;;;3.20;2.08;;;;;;;;;;5085524;28;20020;-50
2021/10/25 02:44:17;;;;;;;3.35;2.05;;;;;;;;;;5086806;28;20348;-52
2021/10/25 02:46:43;;;;;;;2.20;1.80;;;;;;;;;;5085797;28;20028;-52
2021/10/25 02:49:09;;;;;;;2.45;1.73;;;;;;;;;;5073360;28;20198;-52
2021/10/25 02:51:35;;;;;;;2.95;2.00;;;;;;;;;;5066017;28;20154;-51
2021/10/25 02:54:02;;;;;;;2.00;1.52;;;;;;;;;;5066826;28;20491;-52
2021/10/25 02:56:28;;;;;;;2.50;1.92;;;;;;;;;;5066815;28;20108;-52
2021/10/25 02:58:55;;;;;;;1.90;1.75;;;;;;;;;;5066286;28;20412;-52
2021/10/25 03:01:21;;;;;;;1.88;1.70;;;;;;;;;;5066306;28;20032;-51
2021/10/25 03:03:47;;;;;;;2.00;1.60;;;;;;;;;;5065122;28;20028;-51
2021/10/25 03:06:14;;;;;;;2.33;1.67;;;;;;;;;;5065780;28;20012;-52
2021/10/25 03:08:40;;;;;;;2.22;1.70;;;;;;;;;;5076633;28;20097;-52
2021/10/25 03:11:07;;;;;;;3.28;1.90;;;;;;;;;;5085900;28;20039;-52
2021/10/25 03:13:33;;;;;;;5.72;2.00;;;;;;;;;;5085739;28;20028;-51
2021/10/25 03:15:59;;;;;;;2.65;1.92;;;;;;;;;;5085205;28;20026;-52
2021/10/25 03:18:25;;;;;;;2.45;1.80;;;;;;;;;;5084656;28;20039;-52
2021/10/25 03:20:52;;;;;;;2.83;1.90;;;;;;;;;;5086855;28;20032;-51
2021/10/25 03:23:19;;;;;;;1.85;1.65;;;;;;;;;;5085621;28;20217;-52
2021/10/25 03:25:45;;;;;;;2.75;1.85;;;;;;;;;;5086050;28;20089;-53
2021/10/25 03:28:12;;;;;;;2.17;1.70;;;;;;;;;;5084659;28;20034;-52
2021/10/25 03:30:38;;;;;;;2.90;2.08;;;;;;;;;;5085712;28;20028;-49
2021/10/25 03:33:06;;;;;;;2.28;1.77;;;;;;;;;;5084970;28;20028;-52
2021/10/25 03:35:32;;;;;;;3.20;2.20;;;;;;;;;;5084129;28;20035;-52
2021/10/25 03:37:58;;;;;;;3.47;2.08;;;;;;;;;;5075888;28;20033;-50
2021/10/25 03:40:26;;;;;;;2.78;2.13;;;;;;;;;;5065559;28;20049;-51
2021/10/25 03:42:54;;;;;;;3.60;2.03;;;;;;;;;;5064620;28;20021;-52
2021/10/25 03:45:31;;;;;;;3.45;2.30;;;;;;;;;;5065137;28;20021;-49
2021/10/25 03:50:27;;;;;;;2.42;2.00;;;;;;;;;;5085576;28;20028;-52
2021/10/25 03:55:51;;;;;;;2.72;2.00;;;;;;;;;;5085976;28;20074;-52
2021/10/25 03:58:44;;;;;;;2.65;2.15;;;;;;;;;;5073304;28;20052;-51
2021/10/25 04:04:32;;;;;;;;;;;;;;;;;;5068414;28;20101;-51
2021/10/25 04:28:53;;;;;;;2.75;2.20;;;;;;;;;;5069527;28;20408;-52
2021/10/25 04:31:19;;;;;;;2.72;2.17;;;;;;;;;;5069059;28;20455;-53
2021/10/25 04:33:46;;;;;;;2.85;2.15;;;;;;;;;;5069676;28;20730;-52
2021/10/25 04:36:13;;;;;;;2.50;2.05;;;;;;;;;;5069419;28;20024;-52
2021/10/25 04:38:39;;;;;;;2.47;1.77;;;;;;;;;;5068583;28;20030;-51
2021/10/25 04:41:05;;;;;;;2.90;2.15;;;;;;;;;;5085286;28;20544;-51
2021/10/25 04:43:31;;;;;;;4.22;2.30;;;;;;;;;;5069193;28;20066;-52
2021/10/25 04:45:57;;;;;;;5.78;2.50;;;;;;;;;;5089470;28;20393;-52
2021/10/25 04:48:23;;;;;;;3.88;2.53;;;;;;;;;;5088820;28;20028;-52
2021/10/25 04:50:49;;;;;;;3.70;2.47;;;;;;;;;;5089442;28;20028;-52
2021/10/25 04:53:16;;;;;;;3.28;2.40;;;;;;;;;;5088003;28;20032;-50
2021/10/25 04:55:42;;;;;;;4.53;2.25;;;;;;;;;;5089454;28;20035;-50
2021/10/25 04:58:08;;;;;;;3.50;2.40;;;;;;;;;;5089545;28;20483;-51
2021/10/25 05:00:34;;;;;;;3.67;2.63;;;;;;;;;;5088792;28;20455;-52
2021/10/25 05:03:01;;;;;;;3.88;2.70;;;;;;;;;;5073114;28;20036;-51
2021/10/25 05:05:28;;;;;;;4.47;2.70;;;;;;;;;;5078748;28;20085;-51
2021/10/25 05:07:54;;;;;;;3.80;2.40;;;;;;;;;;5090722;28;20016;-51
2021/10/25 05:10:20;;;;;;;3.50;2.38;;;;;;;;;;5088522;28;20040;-52
2021/10/25 05:12:46;;;;;;;3.90;2.50;;;;;;;;;;5088923;28;20426;-51
2021/10/25 05:15:13;;;;;;;3.95;2.70;;;;;;;;;;5085626;28;20108;-53
2021/10/25 05:17:39;;;;;;;3.88;2.30;;;;;;;;;;5072812;28;20043;-52
2021/10/25 05:20:06;;;;;;;4.50;2.55;;;;;;;;;;5068750;28;20039;-52
2021/10/25 05:22:32;;;;;;;3.90;2.60;;;;;;;;;;5073652;28;20038;-52
2021/10/25 05:24:58;;;;;;;3.60;2.53;;;;;;;;;;5086000;28;20112;-52
2021/10/25 05:27:24;;;;;;;4.57;2.80;;;;;;;;;;5088451;28;20479;-52
2021/10/25 05:29:50;;;;;;;4.47;2.88;;;;;;;;;;5088831;28;20031;-51
2021/10/25 05:32:17;;;;;;;2.70;2.08;;;;;;;;;;5077616;28;20029;-51
2021/10/25 05:34:43;;;;;;;3.47;2.67;;;;;;;;;;5082392;28;20056;-50
2021/10/25 05:37:10;;;;;;;3.38;2.40;;;;;;;;;;5079107;28;20698;-52
2021/10/25 05:39:36;;;;;;;2.92;2.00;;;;;;;;;;5067981;28;20024;-52
2021/10/25 05:42:06;;;;;;;3.60;2.47;;;;;;;;;;5068678;28;20024;-53
2021/10/25 05:44:33;;;;;;;4.22;3.00;;;;;;;;;;5068344;28;20021;-51
2021/10/25 05:46:59;;;;;;;3.88;2.83;;;;;;;;;;5068589;28;20111;-50
2021/10/25 05:49:26;;;;;;;5.18;3.05;;;;;;;;;;5068513;28;20016;-53
2021/10/25 05:51:52;;;;;;;3.90;2.40;;;;;;;;;;5068286;28;20024;-52
2021/10/25 05:54:18;;;;;;;3.65;2.75;;;;;;;;;;5068099;28;20035;-52
2021/10/25 05:56:46;;;;;;;4.28;2.67;;;;;;;;;;5088169;28;20030;-52
2021/10/25 05:59:14;;;;;;;3.90;2.78;;;;;;;;;;5079326;28;20025;-52
2021/10/25 06:01:56;;;;;;;3.83;2.45;;;;;;;;;;5075381;28;20379;-52
2021/10/25 06:04:24;;;;;;;4.65;2.92;;;;;;;;;;5081637;28;20024;-52
2021/10/25 06:06:50;;;;;;;3.97;2.55;;;;;;;;;;5086975;28;20084;-52
2021/10/25 06:09:17;;;;;;;3.75;2.67;;;;;;;;;;5086993;28;20428;-50
2021/10/25 06:11:44;;;;;;;4.28;2.67;;;;;;;;;;5081169;28;20020;-50
2021/10/25 06:14:12;;;;;;;4.43;2.97;;;;;;;;;;5067386;28;20544;-51
2021/10/25 06:16:42;;;;;;;3.67;2.55;;;;;;;;;;5067022;28;20111;-52
2021/10/25 06:19:12;;;;;;;5.10;3.00;;;;;;;;;;5085088;28;20102;-53
2021/10/25 06:21:39;;;;;;;5.10;2.85;;;;;;;;;;5087223;28;20027;-51
2021/10/25 06:24:05;;;;;;;4.05;2.83;;;;;;;;;;5078357;28;20123;-52
2021/10/25 06:26:32;;;;;;;4.95;3.35;;;;;;;;;;5087936;28;20099;-50
2021/10/25 06:28:58;;;;;;;4.53;2.80;;;;;;;;;;5068456;28;20153;-52
2021/10/25 06:31:27;;;;;;;3.78;2.65;;;;;;;;;;5066952;28;20029;-52
2021/10/25 06:33:53;;;;;;;4.70;2.60;;;;;;;;;;5076497;28;20020;-53
2021/10/25 06:36:20;;;;;;;4.40;2.95;;;;;;;;;;5082790;28;20038;-52
2021/10/25 06:41:15;;;;;;;4.03;2.75;;;;;;;;;;5068545;28;20054;-53
2021/10/25 06:43:41;;;;;;;4.22;2.72;;;;;;;;;;5079448;28;20036;-50
2021/10/25 06:46:07;;;;;;;4.30;2.80;;;;;;;;;;5077539;28;20024;-53
2021/10/25 06:48:34;;;;;;;3.70;2.88;;;;;;;;;;5078047;28;20033;-53
2021/10/25 06:51:00;;;;;;;5.22;3.08;;;;;;;;;;5083209;28;20024;-52
2021/10/25 06:53:26;;;;;;;5.63;3.25;;;;;;;;;;5081493;28;20035;-52
2021/10/25 06:55:52;;;;;;;4.45;3.10;;;;;;;;;;5075997;28;20024;-52
2021/10/25 06:58:20;;;;;;;5.22;3.22;;;;;;;;;;5066369;28;20059;-52
2021/10/25 07:00:47;;;;;;;4.40;2.90;;;;;;;;;;5071538;28;20012;-51
2021/10/25 07:03:13;;;;;;;4.03;2.50;;;;;;;;;;5087636;28;20382;-52
2021/10/25 07:05:39;;;;;;;3.63;2.70;;;;;;;;;;5086006;28;20073;-50
2021/10/25 07:08:06;;;;;;;3.95;2.70;;;;;;;;;;5068751;28;20590;-50
2021/10/25 07:10:32;;;;;;;4.50;2.63;;;;;;;;;;5067937;28;20036;-51
2021/10/25 07:12:58;;;;;;;4.03;2.42;;;;;;;;;;5068890;28;20039;-53
2021/10/25 07:15:27;;;;;;;4.45;2.63;;;;;;;;;;5074810;28;20753;-51
2021/10/25 07:18:00;;;;;;;3.15;2.30;;;;;;;;;;5070160;28;20035;-49
2021/10/25 08:09:48;;;;;;;2.70;1.60;;;;;;;;;;5073441;28;20122;-52
2021/10/25 08:12:10;;;;;;;2.22;1.60;;;;;;;;;;5084642;28;20102;-52
2021/10/25 08:14:40;;;;;;;4.63;1.80;;;;;;;;;;5072834;28;20395;-53
2021/10/25 08:17:08;;;;;;;2.47;1.85;;;;;;;;;;5075809;28;20028;-52
2021/10/25 08:19:35;;;;;;;3.80;2.00;;;;;;;;;;5071121;28;20028;-51
2021/10/25 08:22:06;;;;;;;2.85;2.00;;;;;;;;;;5076456;28;20016;-52
2021/10/25 08:24:36;;;;;;;3.28;1.67;;;;;;;;;;5072614;28;20086;-52
2021/10/25 08:27:03;;;;;;;2.35;1.70;;;;;;;;;;5069889;28;20027;-52
2021/10/25 08:29:29;;;;;;;2.65;1.85;;;;;;;;;;5066022;28;20509;-51
2021/10/25 08:32:27;;;;;;;2.13;1.70;;;;;;;;;;5073954;28;20016;-49
2021/10/25 08:39:46;;;;;;;2.40;1.80;;;;;;;;;;5085455;28;20471;-53
2021/10/25 08:42:12;;;;;;;2.50;1.67;;;;;;;;;;5086751;28;20030;-52
2021/10/25 08:44:40;;;;;;;2.35;1.92;;;;;;;;;;5086162;28;20479;-51
2021/10/25 08:47:07;;;;;;;2.85;2.00;;;;;;;;;;5086447;28;20560;-50
2021/10/25 08:49:33;;;;;;;2.58;1.90;;;;;;;;;;5076596;28;20019;-49
2021/10/25 08:52:00;;;;;;;1.80;1.58;;;;;;;;;;5087673;28;20448;-50
2021/10/25 08:54:27;;;;;;;2.00;1.67;;;;;;;;;;5090042;28;20035;-51
2021/10/25 08:56:53;;;;;;;2.75;1.67;;;;;;;;;;5089056;28;20290;-51
2021/10/25 08:59:21;;;;;;;2.25;1.75;;;;;;;;;;5089820;28;20032;-52
2021/10/25 09:01:47;;;;;;;2.20;1.70;;;;;;;;;;5089853;28;20032;-49
2021/10/25 09:04:14;;;;;;;1.75;1.63;;;;;;;;;;5089975;28;20031;-53
2021/10/25 09:07:09;;;;;;;1.88;1.45;;;;;;;;;;5089869;28;20066;-50
2021/10/25 09:09:35;;;;;;;1.95;1.23;;;;;;;;;;5084796;28;20071;-50
2021/10/25 09:12:07;;;;;;;2.50;1.63;;;;;;;;;;5090544;28;20039;-51
2021/10/25 09:14:35;;;;;;;2.10;1.70;;;;;;;;;;5089494;28;20023;-51
2021/10/25 09:17:05;;;;;;;2.20;1.80;;;;;;;;;;5085118;28;20033;-50
2021/10/25 09:19:32;;;;;;;2.05;1.40;;;;;;;;;;5083461;28;20036;-51
2021/10/25 09:22:13;;;;;;;2.10;1.35;;;;;;;;;;5088900;28;20028;-52
2021/10/25 09:24:40;;;;;;;1.60;1.20;;;;;;;;;;5088328;28;20526;-51
2021/10/25 09:27:09;;;;;;;1.48;1.08;;;;;;;;;;5079515;28;20077;-50
2021/10/25 09:29:38;;;;;;;1.08;0.95;;;;;;;;;;5069420;28;20055;-49
2021/10/25 09:32:14;;;;;;;1.30;1.05;;;;;;;;;;5079835;28;20028;-52
2021/10/25 09:34:52;;;;;;;1.33;1.20;;;;;;;;;;5088555;28;20035;-51
2021/10/25 09:37:24;;;;;;;2.00;1.00;;;;;;;;;;5087918;28;20028;-50
2021/10/25 09:39:53;;;;;;;1.80;0.80;;;;;;;;;;5088362;28;20394;-49
2021/10/25 09:50:45;;;;;;;1.02;0.85;;;;;;;;;;5072585;28;20473;-50
2021/10/25 09:53:12;;;;;;;1.85;1.08;;;;;;;;;;5067545;28;20034;-52
2021/10/25 09:55:44;;;;;;;1.17;0.98;;;;;;;;;;5066677;28;20032;-48
2021/10/25 09:58:19;;;;;;;0.80;0.80;;;;;;;;;;5074725;28;20028;-50
2021/10/25 10:00:45;;;;;;;1.00;0.75;;;;;;;;;;5075843;28;20039;-51
2021/10/25 10:03:12;;;;;;;1.55;1.13;;;;;;;;;;5075973;28;20024;-50
2021/10/25 10:05:39;;;;;;;1.27;0.93;;;;;;;;;;5071867;28;20107;-51
2021/10/25 10:08:06;;;;;;;1.35;1.05;;;;;;;;;;5071145;28;20552;-50
2021/10/25 10:10:32;;;;;;;1.33;1.05;;;;;;;;;;5096624;28;20031;-52
2021/10/25 10:12:58;;;;;;;1.17;1.08;;;;;;;;;;5083236;28;20576;-52
2021/10/25 10:15:26;;;;;;;1.30;1.02;;;;;;;;;;5067208;28;20437;-52
2021/10/25 10:17:59;;;;;;;1.08;0.93;;;;;;;;;;5084490;28;20024;-50
2021/10/25 10:20:29;;;;;;;0.80;0.80;;;;;;;;;;5081161;28;20077;-49
2021/10/25 10:23:00;;;;;;;1.40;1.00;;;;;;;;;;5087358;28;20031;-52
2021/10/25 10:25:37;;;;;;;1.35;1.00;;;;;;;;;;5069007;28;20418;-49
2021/10/25 10:28:26;;;;;;;1.05;0.95;;;;;;;;;;5087845;28;20016;-51
2021/10/25 10:30:56;;;;;;;1.60;1.10;;;;;;;;;;5087146;28;20229;-50
2021/10/25 10:33:31;;;;;;;1.13;0.90;;;;;;;;;;5087141;28;20020;-50
2021/10/25 10:36:07;;;;;;;1.33;1.10;;;;;;;;;;5087497;28;20054;-52
2021/10/25 10:38:34;;;;;;;1.27;1.00;;;;;;;;;;5087035;28;20307;-52
2021/10/25 10:41:00;;;;;;;1.67;1.10;;;;;;;;;;5087690;28;20031;-51
2021/10/25 10:43:27;;;;;;;0.88;0.77;;;;;;;;;;5086413;28;20302;-52
2021/10/25 10:46:10;;;;;;;1.10;0.63;;;;;;;;;;5082427;28;20032;-53
2021/10/25 10:48:38;;;;;;;1.05;0.95;;;;;;;;;;5069034;28;20039;-50
2021/10/25 10:51:07;;;;;;;1.00;0.90;;;;;;;;;;5065238;28;20039;-51
2021/10/25 10:53:43;;;;;;;0.93;0.80;;;;;;;;;;5067641;28;20865;-53
2021/10/25 10:56:23;;;;;;;1.05;0.90;;;;;;;;;;5067652;28;20036;-52
2021/10/25 11:01:31;;;;;;;1.55;1.20;;;;;;;;;;5088327;28;20028;-53
2021/10/25 11:03:58;;;;;;;2.05;1.30;;;;;;;;;;5088048;28;20028;-52
2021/10/25 11:06:29;;;;;;;1.60;1.30;;;;;;;;;;5085276;28;20046;-52
2021/10/25 11:08:56;;;;;;;1.50;1.17;;;;;;;;;;5081501;28;20027;-53
2021/10/25 11:11:23;;;;;;;1.48;1.00;;;;;;;;;;5075916;28;20035;-50
2021/10/25 11:13:56;;;;;;;1.15;1.05;;;;;;;;;;5086846;28;20031;-50
2021/10/25 11:18:55;;;;;;;1.20;1.10;;;;;;;;;;5072604;28;20035;-53
2021/10/25 11:21:25;;;;;;;0.98;0.93;;;;;;;;;;5087282;28;20036;-54
2021/10/25 11:23:52;;;;;;;1.52;1.00;;;;;;;;;;5087531;28;20498;-52
2021/10/25 11:26:20;;;;;;;0.93;0.93;;;;;;;;;;5078655;28;20038;-51
2021/10/25 11:29:00;;;;;;;1.70;1.30;;;;;;;;;;5072287;28;20101;-52
2021/10/25 11:31:27;;;;;;;1.65;1.10;;;;;;;;;;5075624;28;20039;-51
2021/10/25 11:33:53;;;;;;;1.75;1.30;;;;;;;;;;5087617;28;20124;-50
2021/10/25 11:36:22;;;;;;;3.05;1.80;;;;;;;;;;5071623;28;20056;-50
2021/10/25 11:38:48;;;;;;;1.73;1.40;;;;;;;;;;5069118;28;20502;-52
2021/10/25 11:41:14;;;;;;;1.50;1.25;;;;;;;;;;5075642;28;20032;-54
2021/10/25 11:43:40;;;;;;;1.85;1.15;;;;;;;;;;5087199;28;20027;-54
2021/10/25 11:46:20;;;;;;;1.80;1.30;;;;;;;;;;5070564;28;20416;-53
2021/10/25 11:48:56;;;;;;;1.23;1.00;;;;;;;;;;5068238;28;20060;-52
2021/10/25 11:51:24;;;;;;;1.98;1.23;;;;;;;;;;5065131;28;20017;-52
2021/10/25 11:53:56;;;;;;;1.13;1.00;;;;;;;;;;5064654;28;20043;-53
2021/10/25 11:56:22;;;;;;;1.25;1.00;;;;;;;;;;5065469;28;20063;-50
2021/10/25 11:58:49;;;;;;;1.75;1.30;;;;;;;;;;5065879;28;20503;-52
2021/10/25 12:01:16;;;;;;;1.30;1.08;;;;;;;;;;5065352;28;20107;-51
2021/10/25 12:03:43;;;;;;;1.17;0.93;;;;;;;;;;5065874;28;20472;-53
2021/10/25 12:06:19;;;;;;;1.95;1.08;;;;;;;;;;5066031;28;20327;-53
2021/10/25 12:09:14;;;;;;;2.40;1.48;;;;;;;;;;5065953;28;20053;-52
2021/10/25 12:11:52;;;;;;;1.50;1.13;;;;;;;;;;5056704;28;20045;-52
2021/10/25 12:14:23;;;;;;;1.85;1.58;;;;;;;;;;5065604;28;20028;-52
2021/10/25 12:16:49;;;;;;;2.20;1.50;;;;;;;;;;5065967;28;20409;-53
2021/10/25 12:19:19;;;;;;;1.40;1.20;;;;;;;;;;5073704;28;20180;-53
2021/10/25 12:21:46;;;;;;;1.65;1.23;;;;;;;;;;5085928;28;20105;-53
2021/10/25 12:24:13;;;;;;;1.42;1.20;;;;;;;;;;5087029;28;20051;-53
2021/10/25 12:26:40;;;;;;;1.20;1.10;;;;;;;;;;5089843;28;20031;-53
2021/10/25 12:29:16;;;;;;;1.70;1.30;;;;;;;;;;5089774;28;20080;-53
2021/10/25 12:31:45;;;;;;;1.80;1.10;;;;;;;;;;5089730;28;20050;-53
2021/10/25 12:34:11;;;;;;;1.27;1.17;;;;;;;;;;5089665;28;20052;-53
2021/10/25 12:36:39;;;;;;;1.20;1.10;;;;;;;;;;5089055;28;20064;-53
2021/10/25 12:39:09;;;;;;;2.60;1.23;;;;;;;;;;5089512;28;20491;-51
2021/10/25 12:42:04;;;;;;;1.50;1.17;;;;;;;;;;5089038;28;20407;-53
2021/10/25 12:44:35;;;;;;;2.45;1.20;;;;;;;;;;5083877;28;20131;-52
2021/10/25 12:47:12;;;;;;;1.80;1.30;;;;;;;;;;5088547;28;20042;-52
2021/10/25 12:49:40;;;;;;;2.15;1.60;;;;;;;;;;5088757;28;20024;-52
2021/10/25 12:52:07;;;;;;;2.83;1.42;;;;;;;;;;5088133;28;20126;-50
2021/10/25 12:54:34;;;;;;;1.55;1.42;;;;;;;;;;5067544;28;20024;-53
2021/10/25 12:57:05;;;;;;;1.90;1.60;;;;;;;;;;5069607;28;20415;-51
2021/10/25 12:59:31;;;;;;;1.67;1.40;;;;;;;;;;5069276;28;20024;-53
2021/10/25 13:01:57;;;;;;;1.25;1.10;;;;;;;;;;5068746;28;20029;-53
2021/10/25 13:04:24;;;;;;;2.25;1.33;;;;;;;;;;5068652;28;20028;-53
2021/10/25 13:06:51;;;;;;;1.77;1.10;;;;;;;;;;5068685;28;20103;-52
2021/10/25 13:09:17;;;;;;;1.40;1.27;;;;;;;;;;5068424;28;20103;-53
2021/10/25 13:11:45;;;;;;;1.25;1.00;;;;;;;;;;5068059;28;20032;-52
2021/10/25 13:14:12;;;;;;;1.48;1.00;;;;;;;;;;5079853;28;20508;-52
2021/10/25 13:16:45;;;;;;;1.50;1.10;;;;;;;;;;5075772;28;20119;-52
2021/10/25 13:19:12;;;;;;;1.63;1.25;;;;;;;;;;5071867;28;20021;-51
2021/10/25 13:21:39;;;;;;;2.08;1.23;;;;;;;;;;5080505;28;20036;-49
2021/10/25 13:24:05;;;;;;;1.23;1.10;;;;;;;;;;5072545;28;20047;-50
2021/10/25 13:26:32;;;;;;;1.73;1.20;;;;;;;;;;5069602;28;20571;-50
2021/10/25 13:28:58;;;;;;;1.55;1.02;;;;;;;;;;5069252;28;20024;-51
2021/10/25 13:31:24;;;;;;;1.00;0.80;;;;;;;;;;5069249;28;20505;-50
2021/10/25 13:33:50;;;;;;;1.23;1.08;;;;;;;;;;5079040;28;20046;-49
2021/10/25 13:36:16;;;;;;;2.53;1.38;;;;;;;;;;5070928;28;20446;-50
2021/10/25 13:38:42;;;;;;;2.00;1.27;;;;;;;;;;5078089;28;20067;-51
2021/10/25 13:41:10;;;;;;;1.13;1.00;;;;;;;;;;5068741;28;20032;-51
2021/10/25 13:43:36;;;;;;;2.33;1.33;;;;;;;;;;5069013;28;20059;-52
2021/10/25 13:46:02;;;;;;;1.23;1.05;;;;;;;;;;5072046;28;20044;-52
2021/10/25 13:48:28;;;;;;;1.45;1.10;;;;;;;;;;5067155;28;20024;-51
2021/10/25 13:50:55;;;;;;;1.25;1.10;;;;;;;;;;5078067;28;20051;-50
2021/10/25 13:53:21;;;;;;;1.08;0.98;;;;;;;;;;5087522;28;20056;-53
2021/10/25 13:55:47;;;;;;;2.10;1.23;;;;;;;;;;5068245;28;20032;-51
2021/10/25 13:58:14;;;;;;;1.55;1.20;;;;;;;;;;5066812;28;20036;-51
2021/10/25 14:00:41;;;;;;;2.10;1.35;;;;;;;;;;5068426;28;20032;-52
2021/10/25 14:03:07;;;;;;;2.17;1.50;;;;;;;;;;5086584;28;20109;-53
2021/10/25 14:05:33;;;;;;;2.13;1.50;;;;;;;;;;5089257;28;20103;-53
2021/10/25 14:07:59;;;;;;;2.78;1.90;;;;;;;;;;5073460;28;20020;-50
2021/10/25 14:12:52;;;;;;;1.85;1.50;;;;;;;;;;5079298;28;20047;-51
2021/10/25 14:17:50;;;;;;;2.33;1.50;;;;;;;;;;5067395;28;20112;-49
2021/10/25 14:20:16;;;;;;;1.40;1.13;;;;;;;;;;5083590;28;20036;-52
2021/10/25 14:22:43;;;;;;;1.60;1.35;;;;;;;;;;5086386;28;20024;-52
2021/10/25 14:25:10;;;;;;;1.42;1.30;;;;;;;;;;5087228;28;20506;-51
2021/10/25 14:27:36;;;;;;;1.45;1.30;;;;;;;;;;5087415;28;20020;-51
2021/10/25 14:30:03;;;;;;;2.55;1.40;;;;;;;;;;5088059;28;20026;-51
2021/10/25 14:32:30;;;;;;;2.58;1.45;;;;;;;;;;5087727;28;20021;-50
2021/10/25 14:34:58;;;;;;;1.90;1.33;;;;;;;;;;5087265;28;20044;-50
2021/10/25 14:37:29;;;;;;;2.53;1.48;;;;;;;;;;5086909;28;20548;-52
2021/10/25 14:39:56;;;;;;;1.92;1.42;;;;;;;;;;5087310;28;20028;-52
2021/10/25 14:42:25;;;;;;;2.03;1.33;;;;;;;;;;5087027;28;20028;-51
2021/10/25 14:44:59;;;;;;;2.10;1.35;;;;;;;;;;5087351;28;20507;-50
2021/10/25 14:55:20;;;;;;;2.03;1.60;;;;;;;;;;5075026;28;20044;-52
2021/10/25 14:57:46;;;;;;;3.05;1.40;;;;;;;;;;5066216;28;20027;-51
2021/10/25 15:00:12;;;;;;;1.70;1.42;;;;;;;;;;5066507;28;20033;-51
2021/10/25 15:02:38;;;;;;;1.35;1.25;;;;;;;;;;5066431;28;20025;-52
2021/10/25 15:05:10;;;;;;;2.55;1.35;;;;;;;;;;5066409;28;20107;-52
2021/10/25 15:07:37;;;;;;;2.15;1.80;;;;;;;;;;5066346;28;20021;-53
2021/10/25 15:10:03;;;;;;;1.67;1.40;;;;;;;;;;5067306;28;20388;-51
2021/10/25 15:12:30;;;;;;;1.40;1.20;;;;;;;;;;5066771;28;20052;-52
2021/10/25 15:14:56;;;;;;;1.55;1.25;;;;;;;;;;5066645;28;20113;-52
2021/10/25 15:17:22;;;;;;;2.45;1.30;;;;;;;;;;5066083;28;20056;-49
2021/10/25 15:19:49;;;;;;;1.58;1.25;;;;;;;;;;5079194;28;20036;-52
2021/10/25 15:22:17;;;;;;;1.67;1.25;;;;;;;;;;5070981;28;20080;-51
2021/10/25 15:24:47;;;;;;;1.63;1.33;;;;;;;;;;5081835;28;20070;-52
2021/10/25 15:27:18;;;;;;;1.50;1.30;;;;;;;;;;5072558;28;20021;-53
2021/10/25 15:29:45;;;;;;;1.55;1.42;;;;;;;;;;5087701;28;20048;-53
2021/10/25 15:32:12;;;;;;;2.45;1.40;;;;;;;;;;5078535;28;20028;-52
2021/10/25 15:34:43;;;;;;;1.85;1.52;;;;;;;;;;5067068;28;20032;-51
2021/10/25 15:37:14;;;;;;;1.83;1.40;;;;;;;;;;5066718;28;20438;-53
2021/10/25 15:39:40;;;;;;;1.42;1.33;;;;;;;;;;5076859;28;20528;-51
2021/10/25 15:42:06;;;;;;;1.75;1.20;;;;;;;;;;5076182;28;20028;-51
2021/10/25 15:44:34;;;;;;;2.63;1.42;;;;;;;;;;5070795;28;20032;-54
2021/10/25 15:47:01;;;;;;;1.42;1.13;;;;;;;;;;5082199;28;20069;-54
2021/10/25 15:49:27;;;;;;;2.00;1.20;;;;;;;;;;5069633;28;20032;-53
2021/10/25 15:51:53;;;;;;;1.23;1.13;;;;;;;;;;5072639;28;20020;-52
2021/10/25 15:54:19;;;;;;;1.73;1.40;;;;;;;;;;5080339;28;20391;-54
2021/10/25 15:56:48;;;;;;;1.58;1.38;;;;;;;;;;5083947;28;20097;-53
2021/10/25 15:59:15;;;;;;;2.50;1.50;;;;;;;;;;5079106;28;20379;-54
2021/10/25 16:01:41;;;;;;;1.98;1.60;;;;;;;;;;5076481;28;20028;-52
2021/10/25 16:04:07;;;;;;;2.53;1.77;;;;;;;;;;5084197;28;20509;-53
2021/10/25 16:06:33;;;;;;;4.45;2.80;;;;;;;;;;5083263;28;20056;-54
2021/10/25 16:09:00;;;;;;;8.85;4.68;;;;;;;;;;5077944;28;20033;-53
2021/10/25 16:11:26;;;;;;;9.43;5.13;;;;;;;;;;5077095;28;20122;-53
2021/10/25 16:13:52;;;;;;;7.93;4.40;;;;;;;;;;5087696;28;20747;-53
2021/10/25 16:16:18;;;;;;;5.95;3.17;;;;;;;;;;5089414;28;20494;-54
2021/10/25 16:18:44;;;;;;;4.00;2.50;;;;;;;;;;5089120;28;20453;-53
2021/10/25 16:21:10;;;;;;;3.65;2.20;;;;;;;;;;5089671;28;20028;-53
2021/10/25 16:23:36;;;;;;;3.28;2.08;;;;;;;;;;5072202;28;20033;-52
2021/10/25 16:26:02;;;;;;;2.58;1.88;;;;;;;;;;5076722;28;20028;-53
2021/10/25 16:28:29;;;;;;;2.33;1.77;;;;;;;;;;5086916;28;20036;-53
2021/10/25 16:30:57;;;;;;;2.92;1.52;;;;;;;;;;5069756;28;20020;-52
2021/10/25 16:33:24;;;;;;;1.85;1.52;;;;;;;;;;5075870;28;20039;-54
2021/10/25 16:35:50;;;;;;;1.63;1.52;;;;;;;;;;5068151;28;20020;-53
2021/10/25 16:38:16;;;;;;;2.38;1.60;;;;;;;;;;5074682;28;20040;-54
2021/10/25 16:40:44;;;;;;;1.67;1.40;;;;;;;;;;5076291;28;20027;-54